createdAt,value
2022-09-28T00:04:16.482Z,98973.25
2022-09-28T00:09:18.399Z,98972.31
2022-09-28T00:14:21.113Z,98970.47
2022-09-28T00:19:23.070Z,98977.22
2022-09-28T00:24:27.719Z,98975.22
2022-09-28T00:29:32.629Z,98968.53
2022-09-28T00:34:41.434Z,98969.75
2022-09-28T00:39:44.236Z,98983.09
2022-09-28T00:44:49.568Z,98974.50
2022-09-28T00:50:01.535Z,98987.59
2022-09-28T00:55:08.313Z,98974.50
2022-09-28T01:00:11.337Z,98974.38
2022-09-28T01:05:14.329Z,98965.69
2022-09-28T01:10:16.219Z,98970.72
2022-09-28T01:15:22.046Z,98965.41
2022-09-28T01:20:35.178Z,98963.72
2022-09-28T01:25:54.892Z,98965.69
2022-09-28T01:31:00.591Z,98970.00
2022-09-28T01:36:28.566Z,98972.34
2022-09-28T01:41:33.690Z,98969.31
2022-09-28T01:46:45.107Z,98969.44
2022-09-28T01:51:51.341Z,98964.84
2022-09-28T01:57:12.173Z,98957.69
2022-09-28T02:02:22.170Z,98963.84
2022-09-28T02:07:29.424Z,98955.03
2022-09-28T02:12:41.534Z,98958.06
2022-09-28T02:17:44.054Z,98962.53
2022-09-28T02:22:57.168Z,98960.56
2022-09-28T02:28:07.367Z,98965.06
2022-09-28T02:33:35.122Z,98965.91
2022-09-28T02:38:38.271Z,98964.94
2022-09-28T02:44:13.915Z,98972.22
2022-09-28T02:49:26.985Z,98972.34
2022-09-28T02:55:03.053Z,98971.09
2022-09-28T03:00:13.115Z,98970.16
2022-09-28T03:05:21.237Z,98974.88
2022-09-28T03:10:37.552Z,98973.19
2022-09-28T03:15:39.458Z,98974.28
2022-09-28T03:20:41.356Z,98975.41
2022-09-28T03:25:43.054Z,98978.25
2022-09-28T03:30:44.762Z,98978.50
2022-09-28T03:35:50.811Z,98988.31
2022-09-28T03:40:54.850Z,98989.03
2022-09-28T03:46:01.229Z,98986.25
2022-09-28T03:51:07.116Z,98980.47
2022-09-28T03:56:12.558Z,98985.94
2022-09-28T04:01:18.335Z,98981.03
2022-09-28T04:06:20.486Z,98978.91
2022-09-28T04:11:22.513Z,98985.53
2022-09-28T04:16:24.353Z,98986.50
2022-09-28T04:21:26.365Z,98983.53
2022-09-28T04:26:28.664Z,98980.19
2022-09-28T04:31:31.191Z,98992.09
2022-09-28T04:36:33.154Z,98999.25
2022-09-28T04:41:35.041Z,98990.16
2022-09-28T04:46:37.033Z,98997.31
2022-09-28T04:51:39.014Z,99000.09
2022-09-28T04:56:41.643Z,98995.47
2022-09-28T05:01:43.661Z,99000.09
2022-09-28T05:06:45.765Z,98994.75
2022-09-28T05:11:50.075Z,98999.50
2022-09-28T05:16:52.023Z,98993.66
2022-09-28T05:21:54.482Z,99001.91
2022-09-28T05:26:56.399Z,99002.88
2022-09-28T05:31:58.276Z,99010.75
2022-09-28T05:37:00.148Z,99009.06
2022-09-28T05:42:02.045Z,99008.34
2022-09-28T05:47:04.027Z,99000.94
2022-09-28T05:52:05.824Z,99003.28
2022-09-28T05:57:07.576Z,99005.34
2022-09-28T06:02:11.082Z,99013.22
2022-09-28T06:07:13.113Z,99015.75
2022-09-28T06:12:16.274Z,99012.81
2022-09-28T06:17:18.057Z,99032.44
2022-09-28T06:22:19.871Z,99036.22
2022-09-28T06:27:21.642Z,99035.34
2022-09-28T06:32:23.556Z,99048.81
2022-09-28T06:37:26.438Z,99049.91
2022-09-28T06:42:28.448Z,99044.94
2022-09-28T06:47:31.475Z,99047.13
2022-09-28T06:52:33.278Z,99058.50
2022-09-28T06:57:35.255Z,99048.69
2022-09-28T07:02:37.171Z,99057.34
2022-09-28T07:07:39.011Z,99066.47
2022-09-28T07:12:40.968Z,99070.47
2022-09-28T07:17:56.285Z,99076.63
2022-09-28T07:23:16.937Z,99080.53
2022-09-28T07:28:21.523Z,99082.22
2022-09-28T07:33:25.370Z,99084.22
2022-09-28T07:38:27.414Z,99099.69
2022-09-28T07:43:29.330Z,99098.72
2022-09-28T07:48:37.006Z,99103.50
2022-09-28T07:53:39.078Z,99102.84
2022-09-28T07:58:41.595Z,99109.81
2022-09-28T08:03:48.368Z,99113.31
2022-09-28T08:08:50.505Z,99127.94
2022-09-28T08:13:55.593Z,99116.34
2022-09-28T08:18:57.731Z,99122.13
2022-09-28T08:23:59.625Z,99125.41
2022-09-28T08:29:01.710Z,99129.28
2022-09-28T08:34:03.552Z,99141.50
2022-09-28T08:39:05.603Z,99145.72
2022-09-28T08:44:25.349Z,99146.56
2022-09-28T08:49:37.282Z,99147.16
2022-09-28T08:54:56.485Z,99148.53
2022-09-28T09:00:00.666Z,99152.63
2022-09-28T09:05:15.048Z,99157.22
2022-09-28T09:10:28.889Z,99153.72
2022-09-28T09:15:43.735Z,99158.34
2022-09-28T09:20:59.471Z,99156.72
2022-09-28T09:26:12.642Z,99161.94
2022-09-28T09:32:03.319Z,99164.59
2022-09-28T09:37:31.069Z,99170.44
2022-09-28T09:42:50.841Z,99167.88
2022-09-28T09:48:26.611Z,99170.56
2022-09-28T09:53:39.006Z,99175.69
2022-09-28T09:59:08.255Z,99177.63
2022-09-28T10:04:25.188Z,99169.59
2022-09-28T10:09:47.551Z,99166.44
2022-09-28T10:14:50.290Z,99167.16
2022-09-28T10:19:52.311Z,99163.53
2022-09-28T10:24:57.796Z,99167.66
2022-09-28T10:30:12.351Z,99160.38
2022-09-28T10:35:17.133Z,99160.63
2022-09-28T10:40:31.031Z,99167.31
2022-09-28T10:45:37.271Z,99167.38
2022-09-28T10:50:40.839Z,99162.19
2022-09-28T10:55:55.505Z,99169.31
2022-09-28T11:01:03.889Z,99163.66
2022-09-28T11:06:09.160Z,99170.69
2022-09-28T11:11:13.292Z,99167.88
2022-09-28T11:16:33.778Z,99176.88
2022-09-28T11:21:44.167Z,99169.63
2022-09-28T11:26:49.943Z,99168.88
2022-09-28T11:31:52.160Z,99164.97
2022-09-28T11:37:08.001Z,99170.91
2022-09-28T11:42:36.583Z,99161.03
2022-09-28T11:47:48.382Z,99163.91
2022-09-28T11:52:56.138Z,99165.97
2022-09-28T11:58:06.062Z,99157.97
2022-09-28T12:03:25.536Z,99159.66
2022-09-28T12:08:35.428Z,99157.97
2022-09-28T12:13:47.917Z,99172.00
2022-09-28T12:19:08.548Z,99159.91
2022-09-28T12:24:27.773Z,99158.25
2022-09-28T12:29:37.209Z,99160.19
2022-09-28T12:34:42.772Z,99165.25
2022-09-28T12:40:08.692Z,99163.56
2022-09-28T12:46:10.337Z,99162.13
2022-09-28T12:51:33.772Z,99158.38
2022-09-28T12:56:47.227Z,99150.09
2022-09-28T13:01:54.881Z,99151.09
2022-09-28T13:07:05.978Z,99150.97
2022-09-28T13:12:44.702Z,99146.88
2022-09-28T13:17:50.218Z,99142.84
2022-09-28T13:23:02.479Z,99153.47
2022-09-28T13:28:06.077Z,99153.03
2022-09-28T13:33:14.204Z,99155.44
2022-09-28T13:38:18.867Z,99159.91
2022-09-28T13:43:33.295Z,99160.63
2022-09-28T13:48:51.701Z,99174.59
2022-09-28T13:53:53.635Z,99186.56
2022-09-28T13:58:58.886Z,99191.63
2022-09-28T14:04:15.983Z,99193.13
2022-09-28T14:09:48.807Z,99204.75
2022-09-28T14:14:52.016Z,99208.72
2022-09-28T14:20:00.669Z,99205.09
2022-09-28T14:25:23.771Z,99193.13
2022-09-28T14:30:46.358Z,99188.28
2022-09-28T14:35:56.999Z,99184.00
2022-09-28T14:41:25.348Z,99188.28
2022-09-28T14:46:33.361Z,99192.59
2022-09-28T14:51:35.593Z,99205.94
2022-09-28T14:56:45.113Z,99198.19
2022-09-28T15:02:10.911Z,99206.31
2022-09-28T15:07:23.018Z,99198.94
2022-09-28T15:12:26.507Z,99206.94
2022-09-28T15:17:41.718Z,99205.50
2022-09-28T15:22:48.421Z,99212.03
2022-09-28T15:27:56.706Z,99204.16
2022-09-28T15:33:18.934Z,99204.16
2022-09-28T15:38:21.086Z,99209.81
2022-09-28T15:43:33.087Z,99212.19
2022-09-28T15:48:52.466Z,99208.41
2022-09-28T15:54:17.827Z,99208.03
2022-09-28T15:59:30.917Z,99216.47
2022-09-28T16:04:37.552Z,99222.44
2022-09-28T16:10:13.936Z,99219.31
2022-09-28T16:15:25.439Z,99225.84
2022-09-28T16:20:32.237Z,99238.34
2022-09-28T16:25:37.627Z,99232.84
2022-09-28T16:31:00.876Z,99244.44
2022-09-28T16:36:03.652Z,99247.56
2022-09-28T16:41:06.147Z,99244.31
2022-09-28T16:46:13.671Z,99245.16
2022-09-28T16:51:19.969Z,99242.63
2022-09-28T16:56:21.961Z,99240.94
2022-09-28T17:01:24.982Z,99242.03
2022-09-28T17:06:27.533Z,99241.56
2022-09-28T17:11:29.718Z,99246.28
2022-09-28T17:16:57.679Z,99241.06
2022-09-28T17:21:55.148Z,99241.56
2022-09-28T17:26:57.237Z,99251.09
2022-09-28T17:31:59.164Z,99249.81
2022-09-28T17:37:00.888Z,99257.16
2022-09-28T17:42:02.773Z,99276.78
2022-09-28T17:47:04.536Z,99277.03
2022-09-28T17:52:06.325Z,99271.09
2022-09-28T17:57:10.061Z,99270.84
2022-09-28T18:02:12.307Z,99272.31
2022-09-28T18:07:14.123Z,99283.34
2022-09-28T18:12:15.766Z,99280.41
2022-09-28T18:17:17.638Z,99267.69
2022-09-28T18:22:19.507Z,99281.28
2022-09-28T18:27:21.530Z,99290.94
2022-09-28T18:32:23.741Z,99293.63
2022-09-28T18:37:25.654Z,99295.56
2022-09-28T18:42:27.513Z,99305.97
2022-09-28T18:47:29.536Z,99312.63
2022-09-28T18:52:31.449Z,99311.53
2022-09-28T18:57:33.913Z,99315.28
2022-09-28T19:02:36.754Z,99305.47
2022-09-28T19:07:38.674Z,99318.19
2022-09-28T19:12:40.849Z,99318.56
2022-09-28T19:17:42.748Z,99309.25
2022-09-28T19:22:45.284Z,99318.91
2022-09-28T19:27:48.288Z,99321.72
2022-09-28T19:32:50.281Z,99324.13
2022-09-28T19:37:52.536Z,99322.56
2022-09-28T19:42:54.611Z,99318.81
2022-09-28T19:47:59.564Z,99332.59
2022-09-28T19:53:02.084Z,99333.34
2022-09-28T19:58:04.201Z,99335.75
2022-09-28T20:03:06.204Z,99341.44
2022-09-28T20:08:09.655Z,99339.28
2022-09-28T20:13:11.451Z,99353.19
2022-09-28T20:18:13.616Z,99349.78
2022-09-28T20:23:16.683Z,99352.97
2022-09-28T20:28:19.233Z,99353.34
2022-09-28T20:33:28.626Z,99349.69
2022-09-28T20:38:31.539Z,99348.97
2022-09-28T20:43:35.089Z,99355.00
2022-09-28T20:48:37.528Z,99360.47
2022-09-28T20:53:41.675Z,99350.66
2022-09-28T20:58:43.687Z,99360.44
2022-09-28T21:03:51.693Z,99339.75
2022-09-28T21:08:54.754Z,99342.53
2022-09-28T21:13:59.134Z,99350.53
2022-09-28T21:19:00.987Z,99356.56
2022-09-28T21:24:02.756Z,99355.75
2022-09-28T21:29:13.313Z,99356.72
2022-09-28T21:34:20.211Z,99351.13
2022-09-28T21:39:22.383Z,99348.84
2022-09-28T21:44:24.234Z,99351.25
2022-09-28T21:49:25.894Z,99359.25
2022-09-28T21:54:29.151Z,99368.69
2022-09-28T21:59:31.101Z,99359.00
2022-09-28T22:04:32.903Z,99361.19
2022-09-28T22:09:34.818Z,99366.38
2022-09-28T22:14:36.587Z,99373.41
2022-09-28T22:19:38.428Z,99371.72
2022-09-28T22:24:40.379Z,99379.59
2022-09-28T22:29:42.935Z,99376.94
2022-09-28T22:34:44.757Z,99384.91
2022-09-28T22:39:46.670Z,99378.13
2022-09-28T22:44:49.088Z,99386.84
2022-09-28T22:49:51.158Z,99388.19
2022-09-28T22:54:54.197Z,99391.19
2022-09-28T22:59:56.051Z,99391.34
2022-09-28T23:04:57.834Z,99385.88
2022-09-28T23:10:00.867Z,99379.09
2022-09-28T23:15:02.622Z,99385.16
2022-09-28T23:20:04.763Z,99385.16
2022-09-28T23:25:07.262Z,99382.72
2022-09-28T23:30:10.244Z,99382.97
2022-09-28T23:35:13.147Z,99371.97
2022-09-28T23:40:15.096Z,99377.16
2022-09-28T23:45:17.028Z,99375.69
2022-09-28T23:50:18.794Z,99366.97
2022-09-28T23:55:20.894Z,99374.75
